Williamsville, Illinois
Current Conditions -  °F | °C
As of 9:52 PM on Friday 19 Dec 2014 (Local Time) from KSPI Reporting Station
Few Clouds Few Clouds  
Wind Chill: 31°   Ceiling: Unl
Heat Index: 31°   Visibility: 9mi
Dew Point: 24°   Wind: 3mph
Humidity: 76%   Direction: 100°E
Pressure: 30.27"   Gusts: NA
Location:  39.95°N, 89.55°W
Report Text: KSPI 200352Z 10003KT 9SM FEW046 M01/M04 A3027 RMK AO2 SLP258 T10061044
Loading
Personal Weather Stations






























Interactive Weather Map New forecast layout! Learn more

10-Day Weather Forecast

Advertisements
Track Severe Weather on mobile